Time;durP1;ratioP1;P1;durP2;ratioP2;P2;SDS_P1;SDS_P2;PMS_P1;PMS_P2;Temp;Humidity;BMP_temperature;BMP_pressure;BME280_temperature;BME280_humidity;BME280_pressure;Samples;Min_cycle;Max_cycle;Signal;HPM_P1;HPM_P2
2021/09/13 00:01:05;;;;;;;38.65;9.05;;;16.10;99.90;;;;;;5051098;28;20199;-80
2021/09/13 00:03:31;;;;;;;5.45;4.18;;;16.30;99.90;;;;;;5069112;28;20165;-80
2021/09/13 00:05:56;;;;;;;3.13;2.78;;;16.40;99.90;;;;;;5050956;28;20200;-81
2021/09/13 00:08:22;;;;;;;2.45;2.05;;;16.30;99.90;;;;;;5050901;28;20164;-81
2021/09/13 00:10:48;;;;;;;2.95;1.80;;;16.40;99.90;;;;;;5068699;28;20224;-81
2021/09/13 00:13:15;;;;;;;1.30;1.20;;;16.50;99.90;;;;;;5068807;28;20212;-81
2021/09/13 00:15:41;;;;;;;1.23;1.13;;;16.60;99.90;;;;;;5050810;28;20654;-81
2021/09/13 00:18:07;;;;;;;1.15;1.05;;;16.60;99.90;;;;;;5060086;28;20188;-82
2021/09/13 00:20:35;;;;;;;1.13;1.02;;;16.60;99.90;;;;;;5068784;28;20152;-81
2021/09/13 00:23:01;;;;;;;1.67;0.98;;;16.50;99.90;;;;;;5068789;28;20168;-79
2021/09/13 00:25:27;;;;;;;1.25;1.23;;;16.50;99.90;;;;;;5050637;28;20193;-78
2021/09/13 00:27:54;;;;;;;1.00;0.73;;;16.50;99.90;;;;;;5068685;28;20157;-78
2021/09/13 00:30:20;;;;;;;2.20;1.52;;;16.20;99.90;;;;;;5068680;28;20161;-78
2021/09/13 00:32:46;;;;;;;0.30;0.30;;;16.00;99.90;;;;;;5050607;28;20176;-77
2021/09/13 00:35:12;;;;;;;0.88;0.57;;;15.80;99.90;;;;;;5067264;28;20226;-77
2021/09/13 00:37:38;;;;;;;1.00;0.95;;;16.10;99.90;;;;;;5050734;28;20255;-78
2021/09/13 00:40:05;;;;;;;1.65;1.05;;;16.20;99.90;;;;;;5050565;28;20221;-78
2021/09/13 00:42:33;;;;;;;0.70;0.70;;;16.10;99.90;;;;;;5068537;28;20176;-78
2021/09/13 00:44:59;;;;;;;1.23;1.02;;;15.80;99.90;;;;;;5068393;28;20189;-78
2021/09/13 00:47:25;;;;;;;1.10;0.77;;;16.00;99.90;;;;;;5068360;28;20226;-78
2021/09/13 00:49:51;;;;;;;0.85;0.85;;;16.00;99.90;;;;;;5063236;28;20348;-78
2021/09/13 00:52:18;;;;;;;0.85;0.77;;;16.10;99.90;;;;;;5048302;28;20216;-78
2021/09/13 00:54:47;;;;;;;0.73;0.73;;;16.20;99.90;;;;;;5048237;28;20221;-78
2021/09/13 00:57:14;;;;;;;1.25;1.15;;;16.20;99.90;;;;;;5048003;28;20211;-78
2021/09/13 00:59:41;;;;;;;1.77;0.98;;;16.20;99.90;;;;;;5063232;28;20174;-78
2021/09/13 01:02:07;;;;;;;3.05;1.58;;;16.10;99.90;;;;;;5063374;28;20241;-77
2021/09/13 01:04:33;;;;;;;0.93;0.90;;;16.20;99.90;;;;;;5047925;28;20197;-78
2021/09/13 01:06:59;;;;;;;0.60;0.60;;;16.20;99.90;;;;;;5047964;28;20208;-78
2021/09/13 01:09:25;;;;;;;1.55;1.45;;;16.20;99.90;;;;;;5048156;28;20164;-78
2021/09/13 01:11:51;;;;;;;0.52;0.52;;;16.20;99.90;;;;;;5048175;28;20185;-78
2021/09/13 01:14:19;;;;;;;1.45;1.38;;;16.00;99.90;;;;;;5048019;28;20220;-78
2021/09/13 01:16:46;;;;;;;0.98;0.98;;;15.60;99.90;;;;;;5063448;28;20196;-78
2021/09/13 01:19:12;;;;;;;1.02;1.02;;;15.70;99.90;;;;;;5055472;28;20169;-77
2021/09/13 01:21:41;;;;;;;1.35;1.20;;;15.70;99.90;;;;;;5047971;28;20158;-77
2021/09/13 01:24:09;;;;;;;1.60;0.80;;;15.80;99.90;;;;;;5063106;28;20223;-77
2021/09/13 01:26:35;;;;;;;1.73;1.52;;;15.80;99.90;;;;;;5047919;28;20236;-77
2021/09/13 01:29:02;;;;;;;1.88;1.77;;;15.80;99.90;;;;;;5047677;28;20197;-77
2021/09/13 01:31:29;;;;;;;11.77;1.85;;;15.80;99.90;;;;;;5062863;28;20224;-76
2021/09/13 01:33:55;;;;;;;0.80;0.80;;;15.80;99.90;;;;;;5047754;28;20157;-77
2021/09/13 01:36:21;;;;;;;1.63;1.52;;;15.80;99.90;;;;;;5065145;28;20197;-76
2021/09/13 01:38:46;;;;;;;1.98;1.08;;;15.80;99.90;;;;;;5051638;28;20188;-76
2021/09/13 01:41:12;;;;;;;0.47;0.47;;;15.90;99.90;;;;;;5066928;28;20165;-76
2021/09/13 01:43:38;;;;;;;2.47;1.48;;;15.90;99.90;;;;;;5063493;28;20197;-76
2021/09/13 01:46:04;;;;;;;1.67;1.58;;;15.90;99.90;;;;;;5050899;28;20161;-76
2021/09/13 01:48:30;;;;;;;2.25;1.75;;;15.70;99.90;;;;;;5048795;28;20232;-76
2021/09/13 01:50:56;;;;;;;2.03;0.90;;;15.50;99.90;;;;;;5068909;28;20243;-77
2021/09/13 01:53:22;;;;;;;2.60;1.25;;;15.40;99.90;;;;;;5071551;28;20197;-77
2021/09/13 01:55:48;;;;;;;0.65;0.65;;;15.50;99.90;;;;;;5071575;28;20156;-76
2021/09/13 01:58:14;;;;;;;1.10;1.08;;;15.50;99.90;;;;;;5053442;28;20215;-76
2021/09/13 02:00:40;;;;;;;1.60;1.17;;;15.60;99.90;;;;;;5070148;28;20153;-77
2021/09/13 02:03:05;;;;;;;1.23;1.20;;;15.60;99.90;;;;;;5071488;28;20240;-77
2021/09/13 02:05:31;;;;;;;1.15;1.15;;;15.60;99.90;;;;;;5053988;28;20598;-77
2021/09/13 02:07:57;;;;;;;2.72;2.53;;;15.50;99.90;;;;;;5054017;28;20176;-75
2021/09/13 02:10:23;;;;;;;1.67;0.75;;;15.50;99.90;;;;;;5053602;28;20179;-77
2021/09/13 02:12:49;;;;;;;1.48;1.38;;;15.60;99.90;;;;;;5052863;28;20201;-77
2021/09/13 02:15:15;;;;;;;0.93;0.82;;;15.70;99.90;;;;;;5052753;28;20183;-77
2021/09/13 02:17:41;;;;;;;1.48;0.77;;;15.70;99.90;;;;;;5052867;28;20179;-77
2021/09/13 02:20:08;;;;;;;1.05;0.85;;;15.60;99.90;;;;;;5052806;28;20259;-77
2021/09/13 02:22:34;;;;;;;1.73;1.58;;;15.60;99.90;;;;;;5070803;28;20211;-77
2021/09/13 02:25:00;;;;;;;1.17;1.17;;;15.50;99.90;;;;;;5070862;28;20164;-77
2021/09/13 02:27:25;;;;;;;0.45;0.45;;;15.50;99.90;;;;;;5052844;28;20184;-77
2021/09/13 02:29:51;;;;;;;4.43;0.82;;;15.40;99.90;;;;;;5070837;28;20191;-77
2021/09/13 02:32:17;;;;;;;4.72;1.63;;;15.50;99.90;;;;;;5070708;28;20197;-77
2021/09/13 02:34:43;;;;;;;0.70;0.70;;;15.40;99.90;;;;;;5052733;28;20173;-76
2021/09/13 02:37:09;;;;;;;1.15;1.15;;;15.50;99.90;;;;;;5070563;28;20157;-76
2021/09/13 02:39:35;;;;;;;2.25;1.50;;;15.40;99.90;;;;;;5070708;28;20167;-78
2021/09/13 02:42:01;;;;;;;2.08;1.38;;;15.50;99.90;;;;;;5052321;28;20187;-77
2021/09/13 02:44:27;;;;;;;0.50;0.50;;;15.50;99.90;;;;;;5070193;28;20264;-77
2021/09/13 02:46:53;;;;;;;1.30;1.10;;;15.50;99.90;;;;;;5050932;28;20173;-78
2021/09/13 02:49:19;;;;;;;1.35;1.20;;;15.60;99.90;;;;;;5051697;28;20235;-77
2021/09/13 02:51:44;;;;;;;1.35;1.08;;;15.50;99.90;;;;;;5052159;28;20278;-79
2021/09/13 02:54:11;;;;;;;0.65;0.65;;;15.50;99.90;;;;;;5052383;28;20196;-79
2021/09/13 02:56:38;;;;;;;1.45;0.60;;;15.30;99.90;;;;;;5052254;28;20176;-77
2021/09/13 02:59:04;;;;;;;1.20;1.20;;;15.20;99.90;;;;;;5069997;28;20172;-77
2021/09/13 03:01:30;;;;;;;0.93;0.93;;;15.10;99.90;;;;;;5070058;28;20202;-77
2021/09/13 03:03:56;;;;;;;1.30;1.27;;;15.00;99.90;;;;;;5069835;28;20189;-77
2021/09/13 03:06:22;;;;;;;0.57;0.57;;;15.10;99.90;;;;;;5052134;28;20212;-78
2021/09/13 03:08:48;;;;;;;3.80;2.30;;;15.00;99.90;;;;;;5070243;28;20168;-78
2021/09/13 03:11:14;;;;;;;9.52;1.20;;;15.10;99.90;;;;;;5070167;28;20199;-77
2021/09/13 03:13:41;;;;;;;1.48;1.30;;;15.10;99.90;;;;;;5069848;28;20214;-77
2021/09/13 03:16:07;;;;;;;2.17;0.98;;;15.10;99.90;;;;;;5052052;28;20179;-77
2021/09/13 03:18:32;;;;;;;1.60;1.50;;;15.30;99.90;;;;;;5070059;28;20156;-77
2021/09/13 03:20:58;;;;;;;1.45;1.45;;;15.30;99.90;;;;;;5069717;28;20161;-77
2021/09/13 03:23:27;;;;;;;1.25;1.15;;;15.20;99.90;;;;;;5051714;28;20638;-77
2021/09/13 03:25:53;;;;;;;1.73;1.48;;;15.00;99.90;;;;;;5051624;28;20236;-77
2021/09/13 03:28:19;;;;;;;1.83;1.70;;;15.10;99.90;;;;;;5069680;28;20168;-79
2021/09/13 03:30:45;;;;;;;1.58;1.48;;;15.20;99.90;;;;;;5051607;28;20229;-78
2021/09/13 03:33:11;;;;;;;2.13;2.00;;;15.00;99.90;;;;;;5051351;28;20203;-77
2021/09/13 03:35:37;;;;;;;0.93;0.93;;;14.80;99.90;;;;;;5052096;28;20168;-76
2021/09/13 03:38:03;;;;;;;0.43;0.43;;;15.00;99.90;;;;;;5051548;28;20173;-77
2021/09/13 03:40:29;;;;;;;1.08;1.05;;;15.20;99.90;;;;;;5051847;28;20215;-77
2021/09/13 03:42:55;;;;;;;0.22;0.22;;;15.30;99.90;;;;;;5051546;28;20272;-79
2021/09/13 03:45:20;;;;;;;2.05;1.90;;;15.30;99.90;;;;;;5069454;28;20189;-78
2021/09/13 03:47:48;;;;;;;0.52;0.52;;;15.30;99.90;;;;;;5052219;28;20172;-77
2021/09/13 03:50:14;;;;;;;1.85;1.75;;;15.30;99.90;;;;;;5049359;28;20252;-78
2021/09/13 03:52:40;;;;;;;0.60;0.60;;;15.20;99.90;;;;;;5049226;28;20213;-77
2021/09/13 03:55:07;;;;;;;0.57;0.57;;;15.20;99.90;;;;;;5048462;28;20196;-78
2021/09/13 03:57:33;;;;;;;1.30;0.47;;;15.20;99.90;;;;;;5048347;28;20169;-78
2021/09/13 03:59:59;;;;;;;1.33;1.10;;;15.20;99.90;;;;;;5048041;28;20601;-78
2021/09/13 04:02:25;;;;;;;1.15;1.15;;;15.00;99.90;;;;;;5048052;28;20189;-78
2021/09/13 04:04:51;;;;;;;1.98;1.17;;;15.00;99.90;;;;;;5049224;28;20173;-78
2021/09/13 04:07:25;;;;;;;2.38;1.35;;;14.90;99.90;;;;;;5047911;28;20583;-77
2021/09/13 04:12:17;;;;;;;1.15;1.02;;;14.60;99.90;;;;;;5049177;28;20224;-78
2021/09/13 04:14:43;;;;;;;0.45;0.45;;;14.50;99.90;;;;;;5047951;28;20169;-79
2021/09/13 04:17:09;;;;;;;0.30;0.30;;;14.50;99.90;;;;;;5047805;28;20233;-79
2021/09/13 04:19:35;;;;;;;1.60;1.50;;;14.40;99.90;;;;;;5049036;28;20185;-78
2021/09/13 04:22:02;;;;;;;1.20;1.17;;;14.60;99.90;;;;;;5049044;28;20211;-77
2021/09/13 04:24:27;;;;;;;0.60;0.60;;;14.80;99.90;;;;;;5049032;28;20193;-78
2021/09/13 04:26:53;;;;;;;1.15;1.15;;;14.90;99.90;;;;;;5049009;28;20184;-78
2021/09/13 04:29:19;;;;;;;0.70;0.70;;;14.90;99.90;;;;;;5047483;28;20203;-77
2021/09/13 04:31:45;;;;;;;6.25;2.10;;;15.00;99.90;;;;;;5048843;28;20185;-79
2021/09/13 04:34:11;;;;;;;0.90;0.90;;;15.00;99.90;;;;;;5047600;28;20676;-77
2021/09/13 04:36:37;;;;;;;1.13;1.13;;;15.10;99.90;;;;;;5047458;28;20173;-77
2021/09/13 04:39:03;;;;;;;1.48;1.38;;;15.00;99.90;;;;;;5047302;28;20256;-77
2021/09/13 04:41:29;;;;;;;2.67;2.30;;;15.00;99.90;;;;;;5048822;28;20162;-77
2021/09/13 04:43:55;;;;;;;0.57;0.57;;;14.80;99.90;;;;;;5048537;28;20189;-78
2021/09/13 04:46:21;;;;;;;0.88;0.88;;;14.70;99.90;;;;;;5047323;28;20200;-78
2021/09/13 04:48:47;;;;;;;1.60;1.05;;;14.60;99.90;;;;;;5048590;28;20578;-78
2021/09/13 04:51:13;;;;;;;1.38;1.35;;;14.60;99.90;;;;;;5067371;28;20243;-77
2021/09/13 04:53:39;;;;;;;2.03;1.88;;;14.70;99.90;;;;;;5068434;28;20188;-77
2021/09/13 04:56:05;;;;;;;1.83;1.73;;;14.80;99.90;;;;;;5068442;28;20157;-77
2021/09/13 04:58:30;;;;;;;1.05;1.05;;;14.70;99.90;;;;;;5068272;28;20610;-77
2021/09/13 05:00:56;;;;;;;3.15;2.50;;;14.80;99.90;;;;;;5050097;28;20672;-77
2021/09/13 05:03:22;;;;;;;1.33;1.27;;;14.80;99.90;;;;;;5049940;28;20200;-77
2021/09/13 05:05:48;;;;;;;1.75;1.48;;;14.80;99.90;;;;;;5049964;28;20218;-77
2021/09/13 05:08:14;;;;;;;1.60;1.23;;;14.80;99.90;;;;;;5068147;28;20169;-77
2021/09/13 05:10:40;;;;;;;5.25;1.85;;;14.90;99.90;;;;;;5067487;28;20171;-78
2021/09/13 05:13:06;;;;;;;2.20;2.10;;;14.90;99.90;;;;;;5068005;28;20216;-79
2021/09/13 05:15:32;;;;;;;6.72;1.50;;;14.90;99.90;;;;;;5049946;28;20277;-78
2021/09/13 05:17:58;;;;;;;2.38;1.65;;;15.00;99.90;;;;;;5049979;28;20235;-77
2021/09/13 05:20:23;;;;;;;1.20;1.20;;;15.30;99.90;;;;;;5050148;28;20226;-77
2021/09/13 05:22:49;;;;;;;1.75;1.55;;;15.80;99.90;;;;;;5067890;28;20200;-77
2021/09/13 05:25:17;;;;;;;2.00;1.83;;;16.30;99.90;;;;;;5068198;28;20165;-79
2021/09/13 05:27:43;;;;;;;1.65;1.13;;;16.80;99.90;;;;;;5067711;28;20157;-78
2021/09/13 05:30:10;;;;;;;1.17;1.15;;;17.20;99.90;;;;;;5068023;28;20171;-77
2021/09/13 05:32:36;;;;;;;1.63;1.45;;;17.50;99.90;;;;;;5067731;28;20390;-77
2021/09/13 05:35:02;;;;;;;2.58;2.45;;;17.90;99.90;;;;;;5049729;28;20172;-77
2021/09/13 05:37:28;;;;;;;1.20;1.20;;;18.20;99.90;;;;;;5051043;28;20180;-79
2021/09/13 05:39:54;;;;;;;1.65;1.55;;;18.40;99.90;;;;;;5068838;28;20225;-79
2021/09/13 05:42:20;;;;;;;16.83;1.27;;;18.50;99.90;;;;;;5068355;28;20221;-78
2021/09/13 05:44:46;;;;;;;1.58;1.15;;;18.60;99.90;;;;;;5049537;28;20263;-78
2021/09/13 05:47:11;;;;;;;2.17;1.73;;;18.40;99.90;;;;;;5049353;28;20176;-78
2021/09/13 05:49:37;;;;;;;2.22;1.90;;;18.70;99.90;;;;;;5067092;28;20776;-78
2021/09/13 05:52:03;;;;;;;0.82;0.77;;;18.50;99.90;;;;;;5049040;28;20200;-78
2021/09/13 05:54:29;;;;;;;2.35;2.03;;;18.20;99.90;;;;;;5067502;28;20251;-78
2021/09/13 05:56:56;;;;;;;1.65;1.55;;;18.00;99.90;;;;;;5067456;28;20157;-78
2021/09/13 05:59:23;;;;;;;2.17;1.98;;;17.90;99.90;;;;;;5049441;28;20173;-77
2021/09/13 06:01:50;;;;;;;1.55;1.45;;;17.70;99.90;;;;;;5049611;28;20203;-77
2021/09/13 06:04:17;;;;;;;1.08;1.02;;;17.70;99.90;;;;;;5067550;28;20288;-77
2021/09/13 06:06:43;;;;;;;0.93;0.93;;;17.70;99.90;;;;;;5049385;28;20172;-78
2021/09/13 06:09:10;;;;;;;2.63;1.38;;;17.70;99.90;;;;;;5067344;28;20517;-78
2021/09/13 06:11:37;;;;;;;4.47;1.90;;;17.30;99.90;;;;;;5067284;28;20181;-77
2021/09/13 06:14:03;;;;;;;2.53;2.33;;;17.20;99.90;;;;;;5049255;28;20203;-79
2021/09/13 06:16:29;;;;;;;1.05;1.05;;;17.10;99.90;;;;;;5067081;28;20211;-78
2021/09/13 06:18:55;;;;;;;1.80;1.50;;;17.10;99.90;;;;;;5049140;28;20199;-80
2021/09/13 06:21:22;;;;;;;2.13;1.95;;;17.30;99.90;;;;;;5049391;28;20232;-77
2021/09/13 06:23:47;;;;;;;1.67;1.52;;;17.40;99.90;;;;;;5052933;28;20196;-77
2021/09/13 06:26:14;;;;;;;2.75;2.58;;;17.50;99.90;;;;;;5052963;28;20263;-77
2021/09/13 06:28:41;;;;;;;1.88;1.77;;;17.50;99.90;;;;;;5071011;28;20153;-77
2021/09/13 06:31:07;;;;;;;2.42;2.13;;;17.90;99.90;;;;;;5053047;28;20373;-78
2021/09/13 06:33:33;;;;;;;2.38;2.17;;;18.10;99.90;;;;;;5053015;28;20212;-78
2021/09/13 06:36:00;;;;;;;1.35;1.35;;;18.60;99.90;;;;;;5052752;28;20169;-78
2021/09/13 06:38:26;;;;;;;2.15;1.35;;;19.50;99.90;;;;;;5052840;28;20195;-80
2021/09/13 06:40:53;;;;;;;1.42;1.33;;;20.40;99.90;;;;;;5070926;28;20164;-80
2021/09/13 06:43:19;;;;;;;1.85;1.23;;;21.20;99.90;;;;;;5070750;28;20192;-79
2021/09/13 06:45:46;;;;;;;2.05;1.90;;;22.00;99.90;;;;;;5052657;28;20168;-80
2021/09/13 06:48:15;;;;;;;3.85;2.20;;;22.10;99.90;;;;;;5052711;28;20167;-81
2021/09/13 06:50:44;;;;;;;2.42;2.22;;;22.00;99.90;;;;;;5070365;28;20246;-80
2021/09/13 06:53:10;;;;;;;2.25;2.03;;;22.10;99.90;;;;;;5052649;28;20226;-80
2021/09/13 06:55:38;;;;;;;2.33;2.13;;;22.30;99.90;;;;;;5070681;28;20156;-80
2021/09/13 06:58:08;;;;;;;5.03;1.52;;;23.00;99.90;;;;;;5052653;28;20218;-80
2021/09/13 07:00:35;;;;;;;1.67;1.27;;;23.80;99.90;;;;;;5052425;28;20169;-80
2021/09/13 07:03:01;;;;;;;2.78;2.58;;;23.30;99.90;;;;;;5070385;28;20215;-79
2021/09/13 07:05:28;;;;;;;2.78;2.17;;;23.10;99.90;;;;;;5052471;28;20172;-79
2021/09/13 07:07:54;;;;;;;1.83;1.50;;;23.00;99.90;;;;;;5052239;28;20188;-80
2021/09/13 07:10:20;;;;;;;2.45;1.85;;;23.40;99.90;;;;;;5070465;28;20174;-80
2021/09/13 07:12:47;;;;;;;5.80;2.78;;;23.60;99.90;;;;;;5052210;28;20215;-79
2021/09/13 07:15:15;;;;;;;4.30;1.67;;;23.70;99.90;;;;;;5070281;28;20160;-79
2021/09/13 07:17:42;;;;;;;5.50;2.10;;;23.60;99.90;;;;;;5069960;28;20156;-79
2021/09/13 07:20:08;;;;;;;3.00;1.13;;;23.70;99.90;;;;;;5070302;28;20160;-79
2021/09/13 07:22:35;;;;;;;2.95;2.65;;;23.80;99.90;;;;;;5052265;28;20231;-80
2021/09/13 07:25:02;;;;;;;2.65;1.95;;;23.50;99.90;;;;;;5052132;28;20258;-78
2021/09/13 07:27:28;;;;;;;7.18;2.25;;;23.60;99.90;;;;;;5051933;28;20168;-80
2021/09/13 07:29:59;;;;;;;1.83;1.45;;;24.00;99.90;;;;;;5069724;28;20156;-79
2021/09/13 07:32:25;;;;;;;2.60;2.40;;;24.60;99.90;;;;;;5051675;28;20188;-78
2021/09/13 07:34:52;;;;;;;0.75;0.45;;;25.60;99.90;;;;;;5050783;28;20179;-80
2021/09/13 07:37:18;;;;;;;2.30;1.13;;;26.20;99.90;;;;;;5069804;28;20231;-78
2021/09/13 07:39:44;;;;;;;2.72;2.13;;;26.90;99.90;;;;;;5051620;28;20168;-78
2021/09/13 07:42:10;;;;;;;4.35;1.83;;;26.80;99.90;;;;;;5051460;28;20175;-78
2021/09/13 07:44:36;;;;;;;1.40;1.13;;;26.50;99.90;;;;;;5051470;28;20236;-77
2021/09/13 07:47:02;;;;;;;0.95;0.95;;;26.00;99.90;;;;;;5051465;28;20188;-77
2021/09/13 07:49:28;;;;;;;0.60;0.60;;;26.10;99.90;;;;;;5047773;28;20284;-77
2021/09/13 07:51:54;;;;;;;2.20;1.55;;;25.90;99.90;;;;;;5047858;28;20231;-76
2021/09/13 07:54:20;;;;;;;1.80;1.33;;;26.20;99.90;;;;;;5047637;28;20197;-77
2021/09/13 07:56:46;;;;;;;0.98;0.98;;;26.20;99.90;;;;;;5048700;28;20191;-76
2021/09/13 07:59:12;;;;;;;0.93;0.90;;;26.20;99.90;;;;;;5047791;28;20172;-77
2021/09/13 08:01:38;;;;;;;1.33;1.23;;;26.30;99.90;;;;;;5047504;28;20696;-77
2021/09/13 08:04:04;;;;;;;0.70;0.70;;;26.20;99.90;;;;;;5047433;28;20207;-78
2021/09/13 08:06:31;;;;;;;1.38;1.27;;;25.40;99.90;;;;;;5047690;28;20240;-77
2021/09/13 08:08:56;;;;;;;4.65;1.75;;;25.50;99.90;;;;;;5047668;28;20173;-77
2021/09/13 08:11:23;;;;;;;2.58;1.70;;;25.70;99.90;;;;;;5047541;28;20206;-78
2021/09/13 08:13:49;;;;;;;1.15;1.10;;;26.80;99.90;;;;;;5049171;28;20196;-77
2021/09/13 08:16:16;;;;;;;1.98;0.88;;;26.50;99.90;;;;;;5047800;28;20169;-77
2021/09/13 08:18:42;;;;;;;3.60;1.35;;;26.30;99.90;;;;;;5048945;28;20157;-76
2021/09/13 08:21:08;;;;;;;0.57;0.57;;;26.50;99.90;;;;;;5047538;28;20173;-76
2021/09/13 08:23:35;;;;;;;1.15;1.13;;;26.70;99.90;;;;;;5047509;28;20200;-76
2021/09/13 08:26:06;;;;;;;1.42;1.30;;;26.90;99.90;;;;;;5048745;28;20206;-77
2021/09/13 08:28:32;;;;;;;2.67;1.73;;;27.50;99.90;;;;;;5048873;28;20168;-76
2021/09/13 08:30:58;;;;;;;0.95;0.90;;;27.20;99.90;;;;;;5048476;28;20192;-79
2021/09/13 08:33:24;;;;;;;0.75;0.75;;;27.30;99.90;;;;;;5048398;28;20199;-78
2021/09/13 08:35:53;;;;;;;0.88;0.82;;;27.80;99.90;;;;;;5048750;28;20184;-79
2021/09/13 08:38:20;;;;;;;3.13;1.45;;;27.80;99.90;;;;;;5048453;28;20220;-78
2021/09/13 08:40:47;;;;;;;1.77;1.00;;;27.80;99.90;;;;;;5048733;28;20165;-79
2021/09/13 08:43:14;;;;;;;1.73;0.77;;;27.20;99.90;;;;;;5047410;28;20193;-78
2021/09/13 08:53:25;;;;;;;0.85;0.80;;;27.00;99.90;;;;;;5063028;28;20238;-78
2021/09/13 08:55:51;;;;;;;2.65;1.25;;;26.70;99.90;;;;;;5034867;28;20175;-78
2021/09/13 08:58:24;;;;;;;2.85;1.10;;;27.10;99.90;;;;;;5066017;28;20188;-77
2021/09/13 09:00:52;;;;;;;2.50;1.40;;;27.80;99.90;;;;;;5064068;28;20225;-75
2021/09/13 09:03:18;;;;;;;2.38;1.10;;;28.40;99.90;;;;;;5048083;28;20207;-77
2021/09/13 09:05:47;;;;;;;0.73;0.73;;;28.20;99.90;;;;;;5046818;28;20775;-77
2021/09/13 09:08:27;;;;;;;1.67;1.42;;;28.10;99.90;;;;;;5048061;28;20219;-77
2021/09/13 09:11:02;;;;;;;1.23;1.13;;;28.20;99.90;;;;;;5029811;28;20168;-79
2021/09/13 09:13:41;;;;;;;1.23;0.93;;;27.30;99.90;;;;;;5030188;28;20595;-77
2021/09/13 09:16:07;;;;;;;2.80;1.25;;;27.20;99.90;;;;;;5047978;28;20207;-76
2021/09/13 09:18:39;;;;;;;3.10;1.48;;;27.80;99.90;;;;;;5048029;28;20157;-77
2021/09/13 09:21:06;;;;;;;1.30;1.23;;;27.50;99.90;;;;;;5030156;28;20195;-76
2021/09/13 09:23:34;;;;;;;1.33;1.25;;;27.60;99.90;;;;;;5030187;28;20192;-77
2021/09/13 09:26:13;;;;;;;1.30;0.98;;;27.40;99.90;;;;;;5046710;28;20179;-77
2021/09/13 09:28:38;;;;;;;0.52;0.50;;;27.30;99.90;;;;;;5068000;28;20166;-77
2021/09/13 09:31:04;;;;;;;2.28;1.35;;;27.50;99.90;;;;;;5067506;28;20188;-76
2021/09/13 09:33:30;;;;;;;1.40;1.08;;;27.70;99.90;;;;;;5067914;28;20191;-75
2021/09/13 09:35:57;;;;;;;0.88;0.88;;;28.30;99.90;;;;;;5067953;28;20163;-75
2021/09/13 09:38:29;;;;;;;1.65;1.38;;;27.80;99.90;;;;;;5049772;28;20183;-76
2021/09/13 09:41:00;;;;;;;0.47;0.47;;;27.30;99.90;;;;;;5049808;28;20163;-77
2021/09/13 09:43:28;;;;;;;1.48;1.38;;;27.20;99.90;;;;;;5067418;28;20314;-77
2021/09/13 09:45:54;;;;;;;0.63;0.63;;;26.80;99.90;;;;;;5049641;28;20172;-77
2021/09/13 09:48:31;;;;;;;1.70;1.60;;;27.50;99.90;;;;;;5049835;28;20168;-77
2021/09/13 09:50:57;;;;;;;0.82;0.82;;;27.70;99.90;;;;;;5049426;28;20676;-77
2021/09/13 09:53:29;;;;;;;1.98;1.30;;;27.50;99.90;;;;;;5067435;28;20211;-79
2021/09/13 09:56:10;;;;;;;1.15;0.88;;;27.40;99.90;;;;;;5067663;28;20172;-77
2021/09/13 09:58:57;;;;;;;0.73;0.73;;;27.10;99.90;;;;;;5071773;28;20156;-76
2021/09/13 10:01:38;;;;;;;0.90;0.88;;;27.50;99.90;;;;;;5053289;28;20614;-77
2021/09/13 10:04:21;;;;;;;1.55;0.95;;;28.30;99.90;;;;;;5053588;28;20552;-75
2021/09/13 10:06:59;;;;;;;1.15;1.02;;;28.90;99.90;;;;;;5053520;28;20251;-77
2021/09/13 10:09:29;;;;;;;0.85;0.80;;;29.30;99.90;;;;;;5071542;28;20152;-77
2021/09/13 10:12:01;;;;;;;1.48;1.38;;;28.30;99.90;;;;;;5071423;28;20184;-77
2021/09/13 10:14:29;;;;;;;0.75;0.70;;;27.70;99.90;;;;;;5071465;28;20388;-76
2021/09/13 10:16:56;;;;;;;0.88;0.88;;;27.90;99.90;;;;;;5071212;28;20149;-76
2021/09/13 10:19:24;;;;;;;4.00;1.17;;;27.60;99.90;;;;;;5071594;28;20156;-76
2021/09/13 10:21:51;;;;;;;1.15;1.02;;;28.20;99.90;;;;;;5053025;28;20221;-76
2021/09/13 10:24:31;;;;;;;1.40;1.30;;;29.50;99.90;;;;;;5048091;28;20209;-77
2021/09/13 10:27:11;;;;;;;0.98;0.98;;;30.20;99.90;;;;;;5052711;28;20182;-77
2021/09/13 10:29:38;;;;;;;1.92;1.63;;;30.00;98.10;;;;;;5053403;28;20217;-76
2021/09/13 10:32:11;;;;;;;0.63;0.63;;;29.80;99.10;;;;;;5066220;28;20335;-76
2021/09/13 10:34:40;;;;;;;1.63;0.98;;;28.10;99.90;;;;;;5053136;28;20164;-76
2021/09/13 10:37:17;;;;;;;0.80;0.80;;;28.10;99.90;;;;;;5048808;28;20199;-77
2021/09/13 10:39:51;;;;;;;1.15;1.05;;;29.50;99.70;;;;;;5062989;28;20196;-77
2021/09/13 10:42:47;;;;;;;1.55;1.33;;;28.70;99.30;;;;;;5046498;28;20277;-76
2021/09/13 10:45:44;;;;;;;1.17;1.08;;;29.60;98.80;;;;;;5059134;28;20211;-76
2021/09/13 10:48:18;;;;;;;0.73;0.73;;;30.70;98.50;;;;;;5070843;28;20190;-77
2021/09/13 10:50:47;;;;;;;1.83;0.93;;;31.90;94.80;;;;;;5060954;28;20223;-76
2021/09/13 10:53:22;;;;;;;1.27;1.00;;;31.70;95.00;;;;;;5066876;28;20196;-78
2021/09/13 10:55:55;;;;;;;1.15;1.05;;;31.20;94.90;;;;;;5061001;28;20204;-76
2021/09/13 10:58:33;;;;;;;2.45;1.42;;;31.00;94.90;;;;;;5068023;28;20200;-77
2021/09/13 11:01:04;;;;;;;0.30;0.30;;;32.20;95.60;;;;;;5052279;28;20204;-77
2021/09/13 11:03:36;;;;;;;1.35;1.25;;;30.90;96.80;;;;;;5069670;28;20168;-77
2021/09/13 11:06:05;;;;;;;1.27;1.08;;;30.20;97.90;;;;;;5052073;28;20287;-77
2021/09/13 11:08:41;;;;;;;1.02;0.57;;;30.60;97.30;;;;;;5051335;28;20203;-76
2021/09/13 11:11:18;;;;;;;1.35;0.95;;;30.40;96.80;;;;;;5052294;28;20266;-76
2021/09/13 11:13:46;;;;;;;0.80;0.68;;;30.40;95.60;;;;;;5051761;28;20160;-76
2021/09/13 11:16:17;;;;;;;0.80;0.80;;;30.80;95.80;;;;;;5069455;28;20163;-76
2021/09/13 11:18:46;;;;;;;0.80;0.80;;;31.30;96.00;;;;;;5069899;28;20183;-77
2021/09/13 11:21:26;;;;;;;1.02;0.93;;;31.70;95.20;;;;;;5070114;28;20168;-76
2021/09/13 11:24:01;;;;;;;1.13;1.02;;;30.50;96.80;;;;;;5068508;28;20184;-76
2021/09/13 11:26:32;;;;;;;1.48;1.13;;;30.60;95.70;;;;;;5067547;28;20160;-75
2021/09/13 11:29:03;;;;;;;1.27;1.17;;;30.00;96.20;;;;;;5069675;28;20191;-79
2021/09/13 11:31:36;;;;;;;1.27;1.13;;;29.10;96.40;;;;;;5051650;28;20279;-77
2021/09/13 11:34:30;;;;;;;0.52;0.52;;;28.60;98.50;;;;;;5069760;28;20161;-77
2021/09/13 11:36:59;;;;;;;5.60;1.55;;;29.30;97.80;;;;;;5069708;28;20491;-76
2021/09/13 11:39:28;;;;;;;1.13;0.90;;;30.80;95.20;;;;;;5051468;28;20688;-75
2021/09/13 11:42:12;;;;;;;1.13;0.82;;;30.50;98.90;;;;;;5069459;28;20160;-76
2021/09/13 11:44:49;;;;;;;1.30;0.93;;;32.30;95.90;;;;;;5069477;28;20223;-75
2021/09/13 11:47:17;;;;;;;1.13;1.02;;;31.60;95.00;;;;;;5051226;28;20172;-75
2021/09/13 11:49:46;;;;;;;3.95;1.17;;;30.90;96.60;;;;;;5064599;28;20251;-74
2021/09/13 11:52:15;;;;;;;0.70;0.63;;;31.50;96.70;;;;;;5049428;28;20192;-76
2021/09/13 11:54:44;;;;;;;1.02;0.85;;;30.90;95.50;;;;;;5060551;28;20180;-76
2021/09/13 11:57:38;;;;;;;0.93;0.88;;;30.20;95.70;;;;;;5047802;28;20203;-76
2021/09/13 12:00:13;;;;;;;1.40;0.88;;;29.00;96.80;;;;;;5046243;28;20228;-76
2021/09/13 12:02:42;;;;;;;0.47;0.40;;;29.50;96.40;;;;;;5040683;28;20196;-76
2021/09/13 12:05:15;;;;;;;0.40;0.40;;;29.10;97.20;;;;;;5048913;28;20540;-76
2021/09/13 12:07:44;;;;;;;0.85;0.85;;;28.80;97.60;;;;;;5046231;28;20208;-76
2021/09/13 12:10:11;;;;;;;1.08;0.98;;;28.10;97.90;;;;;;5049476;28;20180;-76
2021/09/13 12:12:43;;;;;;;2.42;1.92;;;27.10;98.30;;;;;;5047702;28;20219;-75
2021/09/13 12:15:09;;;;;;;3.67;1.10;;;26.90;99.00;;;;;;5049219;28;20156;-75
2021/09/13 12:17:44;;;;;;;0.80;0.80;;;26.70;99.00;;;;;;5048848;28;20188;-75
2021/09/13 12:20:40;;;;;;;0.93;0.90;;;26.80;99.20;;;;;;5049878;28;20176;-76
2021/09/13 12:23:14;;;;;;;0.57;0.57;;;27.00;99.30;;;;;;5047878;28;20216;-74
2021/09/13 12:25:44;;;;;;;0.45;0.45;;;26.80;98.70;;;;;;5050293;28;20160;-77
2021/09/13 12:28:11;;;;;;;1.15;0.50;;;26.90;99.00;;;;;;5065270;28;20172;-75
2021/09/13 12:30:39;;;;;;;1.35;1.20;;;27.00;98.70;;;;;;5048129;28;20176;-76
2021/09/13 12:33:10;;;;;;;0.68;0.68;;;27.10;98.80;;;;;;5044136;28;20211;-75
2021/09/13 12:35:42;;;;;;;0.60;0.60;;;27.00;99.90;;;;;;5047644;28;20173;-78
2021/09/13 12:38:13;;;;;;;1.15;0.88;;;27.30;98.40;;;;;;5061423;28;20572;-75
2021/09/13 12:40:54;;;;;;;0.50;0.50;;;26.80;99.90;;;;;;5062619;28;20196;-76
2021/09/13 12:43:31;;;;;;;1.25;1.15;;;26.80;99.90;;;;;;5039385;28;20207;-75
2021/09/13 12:46:12;;;;;;;0.70;0.70;;;26.90;99.40;;;;;;5043913;28;20181;-75
2021/09/13 12:48:42;;;;;;;1.48;1.38;;;27.10;99.90;;;;;;5045208;28;20215;-76
2021/09/13 12:51:15;;;;;;;0.60;0.60;;;27.00;99.90;;;;;;5046362;28;20243;-75
2021/09/13 12:54:03;;;;;;;1.15;0.82;;;27.10;99.20;;;;;;5051928;28;20200;-76
2021/09/13 12:56:31;;;;;;;0.65;0.65;;;26.90;99.30;;;;;;5048109;28;20181;-77
2021/09/13 12:59:20;;;;;;;0.98;0.85;;;27.00;99.90;;;;;;5047053;28;20200;-77
2021/09/13 13:01:47;;;;;;;1.23;1.10;;;27.10;99.70;;;;;;5049256;28;20216;-77